sensor_id;sensor_type;location;lat;lon;timestamp;P1;durP1;ratioP1;P2;durP2;ratioP2
18443;SDS011;9350;53.176;8.194;2023-06-26T00:02:09;9.23;;;7.22;;
18443;SDS011;9350;53.176;8.194;2023-06-26T00:04:35;7.95;;;7.07;;
18443;SDS011;9350;53.176;8.194;2023-06-26T00:07:02;8.93;;;7.18;;
18443;SDS011;9350;53.176;8.194;2023-06-26T00:09:29;7.55;;;6.50;;
18443;SDS011;9350;53.176;8.194;2023-06-26T00:11:57;7.85;;;7.05;;
18443;SDS011;9350;53.176;8.194;2023-06-26T00:14:25;7.63;;;6.93;;
18443;SDS011;9350;53.176;8.194;2023-06-26T00:16:51;7.25;;;6.55;;
18443;SDS011;9350;53.176;8.194;2023-06-26T00:19:18;7.68;;;6.97;;
18443;SDS011;9350;53.176;8.194;2023-06-26T00:21:45;9.90;;;7.20;;
18443;SDS011;9350;53.176;8.194;2023-06-26T00:24:12;8.60;;;7.57;;
18443;SDS011;9350;53.176;8.194;2023-06-26T00:26:40;7.45;;;6.75;;
18443;SDS011;9350;53.176;8.194;2023-06-26T00:29:08;9.32;;;7.15;;
18443;SDS011;9350;53.176;8.194;2023-06-26T00:31:34;9.43;;;7.32;;
18443;SDS011;9350;53.176;8.194;2023-06-26T00:34:03;8.45;;;7.35;;
18443;SDS011;9350;53.176;8.194;2023-06-26T00:36:29;7.13;;;6.43;;
18443;SDS011;9350;53.176;8.194;2023-06-26T00:38:56;8.45;;;7.63;;
18443;SDS011;9350;53.176;8.194;2023-06-26T00:41:23;9.50;;;7.43;;
18443;SDS011;9350;53.176;8.194;2023-06-26T00:43:49;7.55;;;6.85;;
18443;SDS011;9350;53.176;8.194;2023-06-26T00:46:18;7.95;;;7.25;;
18443;SDS011;9350;53.176;8.194;2023-06-26T00:48:46;9.52;;;7.43;;
18443;SDS011;9350;53.176;8.194;2023-06-26T00:51:14;7.80;;;7.00;;
18443;SDS011;9350;53.176;8.194;2023-06-26T00:53:41;8.50;;;7.63;;
18443;SDS011;9350;53.176;8.194;2023-06-26T00:56:09;8.63;;;6.72;;
18443;SDS011;9350;53.176;8.194;2023-06-26T00:58:36;8.65;;;7.53;;
18443;SDS011;9350;53.176;8.194;2023-06-26T01:01:03;8.20;;;7.40;;
18443;SDS011;9350;53.176;8.194;2023-06-26T01:03:32;9.57;;;7.40;;
18443;SDS011;9350;53.176;8.194;2023-06-26T01:05:59;8.43;;;7.63;;
18443;SDS011;9350;53.176;8.194;2023-06-26T01:08:26;9.27;;;8.25;;
18443;SDS011;9350;53.176;8.194;2023-06-26T01:10:54;10.25;;;7.90;;
18443;SDS011;9350;53.176;8.194;2023-06-26T01:13:21;13.80;;;8.20;;
18443;SDS011;9350;53.176;8.194;2023-06-26T01:15:49;8.85;;;7.82;;
18443;SDS011;9350;53.176;8.194;2023-06-26T01:18:17;8.35;;;7.30;;
18443;SDS011;9350;53.176;8.194;2023-06-26T01:20:45;9.30;;;7.35;;
18443;SDS011;9350;53.176;8.194;2023-06-26T01:23:14;12.48;;;7.55;;
18443;SDS011;9350;53.176;8.194;2023-06-26T01:25:51;8.80;;;7.60;;
18443;SDS011;9350;53.176;8.194;2023-06-26T01:28:30;8.55;;;7.40;;
18443;SDS011;9350;53.176;8.194;2023-06-26T01:31:01;9.52;;;8.10;;
18443;SDS011;9350;53.176;8.194;2023-06-26T01:33:30;8.38;;;7.40;;
18443;SDS011;9350;53.176;8.194;2023-06-26T01:35:57;8.73;;;7.93;;
18443;SDS011;9350;53.176;8.194;2023-06-26T01:38:24;9.02;;;8.13;;
18443;SDS011;9350;53.176;8.194;2023-06-26T01:40:51;8.70;;;7.47;;
18443;SDS011;9350;53.176;8.194;2023-06-26T01:43:19;8.95;;;8.05;;
18443;SDS011;9350;53.176;8.194;2023-06-26T01:45:54;13.63;;;8.40;;
18443;SDS011;9350;53.176;8.194;2023-06-26T01:48:25;8.70;;;7.60;;
18443;SDS011;9350;53.176;8.194;2023-06-26T01:50:56;8.85;;;7.95;;
18443;SDS011;9350;53.176;8.194;2023-06-26T01:53:25;8.65;;;7.85;;
18443;SDS011;9350;53.176;8.194;2023-06-26T01:56:03;9.07;;;8.18;;
18443;SDS011;9350;53.176;8.194;2023-06-26T01:58:33;9.48;;;8.23;;
18443;SDS011;9350;53.176;8.194;2023-06-26T02:01:03;9.30;;;8.40;;
18443;SDS011;9350;53.176;8.194;2023-06-26T02:03:30;9.38;;;8.32;;
18443;SDS011;9350;53.176;8.194;2023-06-26T02:05:56;10.20;;;7.78;;
18443;SDS011;9350;53.176;8.194;2023-06-26T02:08:23;8.93;;;8.02;;
18443;SDS011;9350;53.176;8.194;2023-06-26T02:10:50;9.25;;;8.27;;
18443;SDS011;9350;53.176;8.194;2023-06-26T02:13:16;9.80;;;8.25;;
18443;SDS011;9350;53.176;8.194;2023-06-26T02:15:43;15.77;;;8.75;;
18443;SDS011;9350;53.176;8.194;2023-06-26T02:18:11;10.25;;;8.05;;
18443;SDS011;9350;53.176;8.194;2023-06-26T02:20:38;10.85;;;8.40;;
18443;SDS011;9350;53.176;8.194;2023-06-26T02:23:05;10.82;;;8.05;;
18443;SDS011;9350;53.176;8.194;2023-06-26T02:25:32;9.38;;;8.43;;
18443;SDS011;9350;53.176;8.194;2023-06-26T02:27:59;10.10;;;8.02;;
18443;SDS011;9350;53.176;8.194;2023-06-26T02:30:26;9.98;;;8.27;;
18443;SDS011;9350;53.176;8.194;2023-06-26T02:32:52;9.50;;;8.52;;
18443;SDS011;9350;53.176;8.194;2023-06-26T02:35:20;8.82;;;7.85;;
18443;SDS011;9350;53.176;8.194;2023-06-26T02:37:47;9.90;;;8.02;;
18443;SDS011;9350;53.176;8.194;2023-06-26T02:40:14;9.13;;;8.20;;
18443;SDS011;9350;53.176;8.194;2023-06-26T02:42:40;9.45;;;7.75;;
18443;SDS011;9350;53.176;8.194;2023-06-26T02:45:08;11.38;;;8.60;;
18443;SDS011;9350;53.176;8.194;2023-06-26T02:47:35;10.32;;;9.05;;
18443;SDS011;9350;53.176;8.194;2023-06-26T02:50:04;10.00;;;8.02;;
18443;SDS011;9350;53.176;8.194;2023-06-26T02:52:33;11.30;;;8.50;;
18443;SDS011;9350;53.176;8.194;2023-06-26T02:54:59;9.27;;;7.97;;
18443;SDS011;9350;53.176;8.194;2023-06-26T02:57:26;11.90;;;8.63;;
18443;SDS011;9350;53.176;8.194;2023-06-26T02:59:53;9.45;;;8.55;;
18443;SDS011;9350;53.176;8.194;2023-06-26T03:02:20;10.18;;;9.07;;
18443;SDS011;9350;53.176;8.194;2023-06-26T03:04:47;8.50;;;7.68;;
18443;SDS011;9350;53.176;8.194;2023-06-26T03:07:14;11.18;;;8.95;;
18443;SDS011;9350;53.176;8.194;2023-06-26T03:09:42;13.00;;;8.38;;
18443;SDS011;9350;53.176;8.194;2023-06-26T03:12:09;9.93;;;8.60;;
18443;SDS011;9350;53.176;8.194;2023-06-26T03:14:36;9.73;;;8.73;;
18443;SDS011;9350;53.176;8.194;2023-06-26T03:17:03;9.65;;;8.65;;
18443;SDS011;9350;53.176;8.194;2023-06-26T03:19:32;9.65;;;8.43;;
18443;SDS011;9350;53.176;8.194;2023-06-26T03:21:58;10.38;;;8.70;;
18443;SDS011;9350;53.176;8.194;2023-06-26T03:24:25;10.32;;;8.45;;
18443;SDS011;9350;53.176;8.194;2023-06-26T03:26:53;11.05;;;8.63;;
18443;SDS011;9350;53.176;8.194;2023-06-26T03:29:20;9.80;;;8.80;;
18443;SDS011;9350;53.176;8.194;2023-06-26T03:31:46;9.68;;;7.95;;
18443;SDS011;9350;53.176;8.194;2023-06-26T03:34:13;12.82;;;8.68;;
18443;SDS011;9350;53.176;8.194;2023-06-26T03:36:40;11.30;;;8.32;;
18443;SDS011;9350;53.176;8.194;2023-06-26T03:39:07;10.50;;;8.43;;
18443;SDS011;9350;53.176;8.194;2023-06-26T03:41:33;11.75;;;8.35;;
18443;SDS011;9350;53.176;8.194;2023-06-26T03:44:01;10.65;;;8.18;;
18443;SDS011;9350;53.176;8.194;2023-06-26T03:46:29;10.05;;;8.60;;
18443;SDS011;9350;53.176;8.194;2023-06-26T03:48:55;9.27;;;8.20;;
18443;SDS011;9350;53.176;8.194;2023-06-26T03:51:22;9.20;;;8.23;;
18443;SDS011;9350;53.176;8.194;2023-06-26T03:53:49;10.68;;;8.70;;
18443;SDS011;9350;53.176;8.194;2023-06-26T03:56:15;10.00;;;8.65;;
18443;SDS011;9350;53.176;8.194;2023-06-26T03:58:42;8.93;;;7.97;;
18443;SDS011;9350;53.176;8.194;2023-06-26T04:01:10;11.23;;;8.63;;
18443;SDS011;9350;53.176;8.194;2023-06-26T04:03:37;9.90;;;8.30;;
18443;SDS011;9350;53.176;8.194;2023-06-26T04:06:03;9.50;;;8.50;;
18443;SDS011;9350;53.176;8.194;2023-06-26T04:08:31;9.05;;;8.10;;
18443;SDS011;9350;53.176;8.194;2023-06-26T04:10:57;11.73;;;8.43;;
18443;SDS011;9350;53.176;8.194;2023-06-26T04:13:24;9.88;;;8.52;;
18443;SDS011;9350;53.176;8.194;2023-06-26T04:15:51;12.07;;;8.85;;
18443;SDS011;9350;53.176;8.194;2023-06-26T04:18:19;10.50;;;8.60;;
18443;SDS011;9350;53.176;8.194;2023-06-26T04:23:31;8.82;;;7.78;;
18443;SDS011;9350;53.176;8.194;2023-06-26T04:25:58;8.57;;;7.70;;
18443;SDS011;9350;53.176;8.194;2023-06-26T04:28:25;10.15;;;8.43;;
18443;SDS011;9350;53.176;8.194;2023-06-26T04:30:52;9.63;;;8.10;;
18443;SDS011;9350;53.176;8.194;2023-06-26T04:33:21;9.50;;;7.75;;
18443;SDS011;9350;53.176;8.194;2023-06-26T04:35:48;9.65;;;8.48;;
18443;SDS011;9350;53.176;8.194;2023-06-26T04:38:15;9.75;;;8.55;;
18443;SDS011;9350;53.176;8.194;2023-06-26T04:40:41;9.65;;;7.88;;
18443;SDS011;9350;53.176;8.194;2023-06-26T04:43:08;10.48;;;8.13;;
18443;SDS011;9350;53.176;8.194;2023-06-26T04:45:35;11.73;;;7.95;;
18443;SDS011;9350;53.176;8.194;2023-06-26T04:48:02;11.98;;;8.27;;
18443;SDS011;9350;53.176;8.194;2023-06-26T04:50:31;10.65;;;7.60;;
18443;SDS011;9350;53.176;8.194;2023-06-26T04:52:58;9.15;;;8.20;;
18443;SDS011;9350;53.176;8.194;2023-06-26T04:55:25;11.55;;;7.93;;
18443;SDS011;9350;53.176;8.194;2023-06-26T04:57:53;9.63;;;7.78;;
18443;SDS011;9350;53.176;8.194;2023-06-26T05:00:19;8.98;;;8.07;;
18443;SDS011;9350;53.176;8.194;2023-06-26T05:02:47;9.05;;;8.13;;
18443;SDS011;9350;53.176;8.194;2023-06-26T05:05:14;10.23;;;8.00;;
18443;SDS011;9350;53.176;8.194;2023-06-26T05:07:42;9.30;;;8.30;;
18443;SDS011;9350;53.176;8.194;2023-06-26T05:10:09;9.77;;;8.75;;
18443;SDS011;9350;53.176;8.194;2023-06-26T05:12:36;9.63;;;7.88;;
18443;SDS011;9350;53.176;8.194;2023-06-26T05:15:03;9.35;;;8.38;;
18443;SDS011;9350;53.176;8.194;2023-06-26T05:17:30;9.27;;;8.15;;
18443;SDS011;9350;53.176;8.194;2023-06-26T05:19:57;10.10;;;7.85;;
18443;SDS011;9350;53.176;8.194;2023-06-26T05:22:23;11.70;;;8.93;;
18443;SDS011;9350;53.176;8.194;2023-06-26T05:24:53;9.45;;;7.75;;
18443;SDS011;9350;53.176;8.194;2023-06-26T05:27:23;10.98;;;8.38;;
18443;SDS011;9350;53.176;8.194;2023-06-26T05:29:50;9.63;;;7.78;;
18443;SDS011;9350;53.176;8.194;2023-06-26T05:32:17;9.32;;;8.35;;
18443;SDS011;9350;53.176;8.194;2023-06-26T05:34:45;10.65;;;8.77;;
18443;SDS011;9350;53.176;8.194;2023-06-26T05:37:13;11.10;;;7.95;;
18443;SDS011;9350;53.176;8.194;2023-06-26T05:39:44;12.43;;;8.40;;
18443;SDS011;9350;53.176;8.194;2023-06-26T05:42:13;9.65;;;8.18;;
18443;SDS011;9350;53.176;8.194;2023-06-26T05:44:40;10.43;;;8.43;;
18443;SDS011;9350;53.176;8.194;2023-06-26T05:47:07;9.80;;;7.85;;
18443;SDS011;9350;53.176;8.194;2023-06-26T05:49:34;12.82;;;8.48;;
18443;SDS011;9350;53.176;8.194;2023-06-26T05:52:01;12.00;;;8.32;;
18443;SDS011;9350;53.176;8.194;2023-06-26T05:54:28;9.48;;;8.45;;
18443;SDS011;9350;53.176;8.194;2023-06-26T05:56:56;13.63;;;9.02;;
18443;SDS011;9350;53.176;8.194;2023-06-26T05:59:26;9.63;;;8.63;;
18443;SDS011;9350;53.176;8.194;2023-06-26T06:01:53;10.65;;;8.10;;
18443;SDS011;9350;53.176;8.194;2023-06-26T06:04:20;10.50;;;8.20;;
18443;SDS011;9350;53.176;8.194;2023-06-26T06:06:47;13.48;;;8.90;;
18443;SDS011;9350;53.176;8.194;2023-06-26T06:09:13;15.65;;;9.02;;
18443;SDS011;9350;53.176;8.194;2023-06-26T06:11:40;12.90;;;9.02;;
18443;SDS011;9350;53.176;8.194;2023-06-26T06:14:07;11.98;;;9.98;;
18443;SDS011;9350;53.176;8.194;2023-06-26T06:16:35;12.13;;;9.63;;
18443;SDS011;9350;53.176;8.194;2023-06-26T06:19:02;11.52;;;9.23;;
18443;SDS011;9350;53.176;8.194;2023-06-26T06:21:31;11.77;;;9.23;;
18443;SDS011;9350;53.176;8.194;2023-06-26T06:23:58;13.68;;;9.48;;
18443;SDS011;9350;53.176;8.194;2023-06-26T06:26:26;12.80;;;9.15;;
18443;SDS011;9350;53.176;8.194;2023-06-26T06:28:52;11.75;;;9.65;;
18443;SDS011;9350;53.176;8.194;2023-06-26T06:31:19;11.73;;;9.15;;
18443;SDS011;9350;53.176;8.194;2023-06-26T06:33:47;15.32;;;9.85;;
18443;SDS011;9350;53.176;8.194;2023-06-26T06:36:14;11.35;;;9.10;;
18443;SDS011;9350;53.176;8.194;2023-06-26T06:38:42;12.52;;;9.43;;
18443;SDS011;9350;53.176;8.194;2023-06-26T06:41:09;11.60;;;9.27;;
18443;SDS011;9350;53.176;8.194;2023-06-26T06:43:37;11.13;;;9.00;;
18443;SDS011;9350;53.176;8.194;2023-06-26T06:46:04;10.50;;;9.40;;
18443;SDS011;9350;53.176;8.194;2023-06-26T06:48:31;12.90;;;10.68;;
18443;SDS011;9350;53.176;8.194;2023-06-26T06:50:59;13.15;;;9.85;;
18443;SDS011;9350;53.176;8.194;2023-06-26T06:53:25;14.30;;;9.52;;
18443;SDS011;9350;53.176;8.194;2023-06-26T06:55:52;16.23;;;10.00;;
18443;SDS011;9350;53.176;8.194;2023-06-26T06:58:19;16.90;;;10.27;;
18443;SDS011;9350;53.176;8.194;2023-06-26T07:00:46;13.55;;;9.50;;
18443;SDS011;9350;53.176;8.194;2023-06-26T07:03:12;11.00;;;9.15;;
18443;SDS011;9350;53.176;8.194;2023-06-26T07:05:41;19.15;;;10.27;;
18443;SDS011;9350;53.176;8.194;2023-06-26T07:08:09;20.92;;;10.75;;
18443;SDS011;9350;53.176;8.194;2023-06-26T07:10:36;16.05;;;10.18;;
18443;SDS011;9350;53.176;8.194;2023-06-26T07:13:03;14.73;;;10.15;;
18443;SDS011;9350;53.176;8.194;2023-06-26T07:15:30;17.05;;;10.15;;
18443;SDS011;9350;53.176;8.194;2023-06-26T07:17:57;16.17;;;10.32;;
18443;SDS011;9350;53.176;8.194;2023-06-26T07:20:24;20.80;;;10.45;;
18443;SDS011;9350;53.176;8.194;2023-06-26T07:22:50;16.70;;;9.95;;
18443;SDS011;9350;53.176;8.194;2023-06-26T07:25:19;15.88;;;9.45;;
18443;SDS011;9350;53.176;8.194;2023-06-26T07:27:46;16.60;;;8.70;;
18443;SDS011;9350;53.176;8.194;2023-06-26T07:30:13;18.35;;;9.85;;
18443;SDS011;9350;53.176;8.194;2023-06-26T07:32:39;19.20;;;9.88;;
18443;SDS011;9350;53.176;8.194;2023-06-26T07:35:07;15.88;;;11.00;;
18443;SDS011;9350;53.176;8.194;2023-06-26T07:37:34;16.17;;;11.05;;
18443;SDS011;9350;53.176;8.194;2023-06-26T07:40:01;19.90;;;11.27;;
18443;SDS011;9350;53.176;8.194;2023-06-26T07:42:29;15.27;;;11.82;;
18443;SDS011;9350;53.176;8.194;2023-06-26T07:44:55;17.17;;;12.73;;
18443;SDS011;9350;53.176;8.194;2023-06-26T07:47:22;17.35;;;12.60;;
18443;SDS011;9350;53.176;8.194;2023-06-26T07:49:49;25.80;;;13.95;;
18443;SDS011;9350;53.176;8.194;2023-06-26T07:52:17;33.80;;;14.40;;
18443;SDS011;9350;53.176;8.194;2023-06-26T07:54:44;24.48;;;13.00;;
18443;SDS011;9350;53.176;8.194;2023-06-26T07:57:11;16.58;;;11.70;;
18443;SDS011;9350;53.176;8.194;2023-06-26T07:59:39;21.38;;;12.77;;
18443;SDS011;9350;53.176;8.194;2023-06-26T08:02:06;23.92;;;13.88;;
18443;SDS011;9350;53.176;8.194;2023-06-26T08:04:33;20.30;;;13.30;;
18443;SDS011;9350;53.176;8.194;2023-06-26T08:07:00;24.88;;;15.07;;
18443;SDS011;9350;53.176;8.194;2023-06-26T08:09:29;25.50;;;14.90;;
18443;SDS011;9350;53.176;8.194;2023-06-26T08:11:56;22.35;;;14.23;;
18443;SDS011;9350;53.176;8.194;2023-06-26T08:14:23;21.42;;;14.02;;
18443;SDS011;9350;53.176;8.194;2023-06-26T08:16:51;30.27;;;14.82;;
18443;SDS011;9350;53.176;8.194;2023-06-26T08:19:18;25.00;;;12.20;;
18443;SDS011;9350;53.176;8.194;2023-06-26T08:21:45;21.30;;;9.82;;
18443;SDS011;9350;53.176;8.194;2023-06-26T08:24:12;17.23;;;8.98;;
18443;SDS011;9350;53.176;8.194;2023-06-26T08:26:41;16.00;;;7.82;;
18443;SDS011;9350;53.176;8.194;2023-06-26T08:29:08;13.68;;;6.43;;
18443;SDS011;9350;53.176;8.194;2023-06-26T08:31:35;13.35;;;6.07;;
18443;SDS011;9350;53.176;8.194;2023-06-26T08:34:03;16.20;;;5.80;;
18443;SDS011;9350;53.176;8.194;2023-06-26T08:36:31;10.18;;;5.55;;
18443;SDS011;9350;53.176;8.194;2023-06-26T08:38:57;8.90;;;5.40;;
18443;SDS011;9350;53.176;8.194;2023-06-26T08:41:24;13.32;;;5.10;;
18443;SDS011;9350;53.176;8.194;2023-06-26T08:43:51;9.32;;;4.65;;
18443;SDS011;9350;53.176;8.194;2023-06-26T08:46:18;10.70;;;4.50;;
18443;SDS011;9350;53.176;8.194;2023-06-26T08:48:48;7.90;;;4.72;;
18443;SDS011;9350;53.176;8.194;2023-06-26T08:51:20;11.05;;;4.63;;
18443;SDS011;9350;53.176;8.194;2023-06-26T08:53:50;10.48;;;5.10;;
18443;SDS011;9350;53.176;8.194;2023-06-26T08:56:22;10.45;;;4.18;;
18443;SDS011;9350;53.176;8.194;2023-06-26T08:58:49;8.45;;;3.50;;
18443;SDS011;9350;53.176;8.194;2023-06-26T09:01:17;12.63;;;3.78;;
18443;SDS011;9350;53.176;8.194;2023-06-26T09:03:44;8.65;;;3.55;;
18443;SDS011;9350;53.176;8.194;2023-06-26T09:06:10;6.30;;;2.90;;
18443;SDS011;9350;53.176;8.194;2023-06-26T09:08:38;8.18;;;3.10;;
18443;SDS011;9350;53.176;8.194;2023-06-26T09:11:05;4.07;;;2.58;;
18443;SDS011;9350;53.176;8.194;2023-06-26T09:13:32;9.60;;;2.47;;
18443;SDS011;9350;53.176;8.194;2023-06-26T09:15:59;5.18;;;2.38;;
18443;SDS011;9350;53.176;8.194;2023-06-26T09:18:32;5.53;;;2.25;;
18443;SDS011;9350;53.176;8.194;2023-06-26T09:20:59;6.80;;;2.65;;
18443;SDS011;9350;53.176;8.194;2023-06-26T09:23:31;5.40;;;2.47;;
18443;SDS011;9350;53.176;8.194;2023-06-26T09:26:00;6.78;;;2.45;;
18443;SDS011;9350;53.176;8.194;2023-06-26T09:28:28;8.18;;;2.47;;
18443;SDS011;9350;53.176;8.194;2023-06-26T09:30:59;4.53;;;2.40;;
18443;SDS011;9350;53.176;8.194;2023-06-26T09:33:28;4.72;;;2.38;;
18443;SDS011;9350;53.176;8.194;2023-06-26T09:35:59;6.18;;;2.20;;
18443;SDS011;9350;53.176;8.194;2023-06-26T09:38:26;7.10;;;1.90;;
18443;SDS011;9350;53.176;8.194;2023-06-26T09:40:53;5.35;;;1.95;;
18443;SDS011;9350;53.176;8.194;2023-06-26T09:43:21;5.93;;;1.85;;
18443;SDS011;9350;53.176;8.194;2023-06-26T09:45:49;7.53;;;1.80;;
18443;SDS011;9350;53.176;8.194;2023-06-26T09:48:15;5.10;;;1.85;;
18443;SDS011;9350;53.176;8.194;2023-06-26T09:50:43;4.07;;;1.83;;
18443;SDS011;9350;53.176;8.194;2023-06-26T09:53:10;12.25;;;2.15;;
18443;SDS011;9350;53.176;8.194;2023-06-26T09:55:38;3.35;;;1.70;;
18443;SDS011;9350;53.176;8.194;2023-06-26T09:58:09;3.95;;;1.83;;
18443;SDS011;9350;53.176;8.194;2023-06-26T10:00:41;9.77;;;2.13;;
18443;SDS011;9350;53.176;8.194;2023-06-26T10:03:08;4.13;;;1.77;;
18443;SDS011;9350;53.176;8.194;2023-06-26T10:05:35;3.78;;;1.80;;
18443;SDS011;9350;53.176;8.194;2023-06-26T10:08:02;2.88;;;1.55;;
18443;SDS011;9350;53.176;8.194;2023-06-26T10:10:31;5.32;;;1.60;;
18443;SDS011;9350;53.176;8.194;2023-06-26T10:13:01;4.13;;;1.80;;
18443;SDS011;9350;53.176;8.194;2023-06-26T10:15:34;6.60;;;1.55;;
18443;SDS011;9350;53.176;8.194;2023-06-26T10:18:04;2.63;;;1.40;;
18443;SDS011;9350;53.176;8.194;2023-06-26T10:20:31;6.93;;;1.77;;
18443;SDS011;9350;53.176;8.194;2023-06-26T10:22:59;4.68;;;1.63;;
18443;SDS011;9350;53.176;8.194;2023-06-26T10:25:28;3.45;;;1.80;;
18443;SDS011;9350;53.176;8.194;2023-06-26T10:27:58;5.53;;;1.90;;
18443;SDS011;9350;53.176;8.194;2023-06-26T10:30:28;4.95;;;1.95;;
18443;SDS011;9350;53.176;8.194;2023-06-26T10:32:59;7.30;;;1.92;;
18443;SDS011;9350;53.176;8.194;2023-06-26T10:35:28;11.70;;;1.80;;
18443;SDS011;9350;53.176;8.194;2023-06-26T10:37:59;5.22;;;1.92;;
18443;SDS011;9350;53.176;8.194;2023-06-26T10:40:30;8.68;;;2.00;;
18443;SDS011;9350;53.176;8.194;2023-06-26T10:43:07;7.50;;;1.48;;
18443;SDS011;9350;53.176;8.194;2023-06-26T10:45:36;3.35;;;1.80;;
18443;SDS011;9350;53.176;8.194;2023-06-26T10:48:08;2.72;;;1.67;;
18443;SDS011;9350;53.176;8.194;2023-06-26T10:50:42;5.90;;;1.73;;
18443;SDS011;9350;53.176;8.194;2023-06-26T10:53:16;4.90;;;1.67;;
18443;SDS011;9350;53.176;8.194;2023-06-26T10:55:50;3.10;;;1.67;;
18443;SDS011;9350;53.176;8.194;2023-06-26T10:58:28;3.88;;;1.70;;
18443;SDS011;9350;53.176;8.194;2023-06-26T11:01:17;4.25;;;1.63;;
18443;SDS011;9350;53.176;8.194;2023-06-26T11:03:47;2.95;;;1.70;;
18443;SDS011;9350;53.176;8.194;2023-06-26T11:06:17;3.58;;;1.77;;
18443;SDS011;9350;53.176;8.194;2023-06-26T11:08:44;5.05;;;2.08;;
18443;SDS011;9350;53.176;8.194;2023-06-26T11:11:12;2.05;;;1.85;;
18443;SDS011;9350;53.176;8.194;2023-06-26T11:13:39;3.83;;;1.83;;
18443;SDS011;9350;53.176;8.194;2023-06-26T11:16:06;2.15;;;1.90;;
18443;SDS011;9350;53.176;8.194;2023-06-26T11:18:33;3.25;;;2.15;;
18443;SDS011;9350;53.176;8.194;2023-06-26T11:21:06;4.50;;;2.10;;
18443;SDS011;9350;53.176;8.194;2023-06-26T11:23:35;2.75;;;1.77;;
18443;SDS011;9350;53.176;8.194;2023-06-26T11:26:15;5.18;;;2.10;;
18443;SDS011;9350;53.176;8.194;2023-06-26T11:28:46;6.20;;;2.40;;
18443;SDS011;9350;53.176;8.194;2023-06-26T11:31:23;4.50;;;2.00;;
18443;SDS011;9350;53.176;8.194;2023-06-26T11:33:51;7.40;;;1.95;;
18443;SDS011;9350;53.176;8.194;2023-06-26T11:36:18;2.95;;;1.80;;
18443;SDS011;9350;53.176;8.194;2023-06-26T11:38:51;5.22;;;1.70;;
18443;SDS011;9350;53.176;8.194;2023-06-26T11:41:19;4.47;;;1.98;;
18443;SDS011;9350;53.176;8.194;2023-06-26T11:43:45;4.28;;;1.83;;
18443;SDS011;9350;53.176;8.194;2023-06-26T11:46:12;2.08;;;1.67;;
18443;SDS011;9350;53.176;8.194;2023-06-26T11:48:41;3.80;;;2.05;;
18443;SDS011;9350;53.176;8.194;2023-06-26T11:51:08;2.45;;;1.85;;
18443;SDS011;9350;53.176;8.194;2023-06-26T11:53:38;3.28;;;2.28;;
18443;SDS011;9350;53.176;8.194;2023-06-26T11:56:11;2.58;;;1.63;;
18443;SDS011;9350;53.176;8.194;2023-06-26T12:01:23;3.72;;;1.88;;
18443;SDS011;9350;53.176;8.194;2023-06-26T12:03:51;4.53;;;1.67;;
18443;SDS011;9350;53.176;8.194;2023-06-26T12:06:20;3.28;;;1.90;;
18443;SDS011;9350;53.176;8.194;2023-06-26T12:08:47;5.78;;;2.30;;
18443;SDS011;9350;53.176;8.194;2023-06-26T12:11:16;3.10;;;1.95;;
18443;SDS011;9350;53.176;8.194;2023-06-26T12:13:43;7.43;;;1.98;;
18443;SDS011;9350;53.176;8.194;2023-06-26T12:16:11;5.80;;;1.92;;
18443;SDS011;9350;53.176;8.194;2023-06-26T12:18:40;2.28;;;1.80;;
18443;SDS011;9350;53.176;8.194;2023-06-26T12:21:06;2.50;;;1.88;;
18443;SDS011;9350;53.176;8.194;2023-06-26T12:23:33;2.95;;;2.00;;
18443;SDS011;9350;53.176;8.194;2023-06-26T12:28:48;4.28;;;1.80;;
18443;SDS011;9350;53.176;8.194;2023-06-26T12:31:15;2.72;;;2.03;;
18443;SDS011;9350;53.176;8.194;2023-06-26T12:33:42;3.70;;;1.95;;
18443;SDS011;9350;53.176;8.194;2023-06-26T12:36:10;3.10;;;1.98;;
18443;SDS011;9350;53.176;8.194;2023-06-26T12:38:38;3.78;;;2.10;;
18443;SDS011;9350;53.176;8.194;2023-06-26T12:41:04;2.20;;;1.90;;
18443;SDS011;9350;53.176;8.194;2023-06-26T12:43:32;4.35;;;2.10;;
18443;SDS011;9350;53.176;8.194;2023-06-26T12:46:04;5.88;;;2.47;;
18443;SDS011;9350;53.176;8.194;2023-06-26T12:48:37;3.22;;;1.70;;
18443;SDS011;9350;53.176;8.194;2023-06-26T12:51:09;5.85;;;2.13;;
18443;SDS011;9350;53.176;8.194;2023-06-26T12:53:36;4.53;;;2.05;;
18443;SDS011;9350;53.176;8.194;2023-06-26T12:56:04;5.32;;;2.53;;
18443;SDS011;9350;53.176;8.194;2023-06-26T12:58:32;3.22;;;2.28;;
18443;SDS011;9350;53.176;8.194;2023-06-26T13:00:59;7.90;;;2.50;;
18443;SDS011;9350;53.176;8.194;2023-06-26T13:03:27;3.35;;;2.08;;
18443;SDS011;9350;53.176;8.194;2023-06-26T13:05:54;3.67;;;2.00;;
18443;SDS011;9350;53.176;8.194;2023-06-26T13:08:20;7.82;;;2.20;;
18443;SDS011;9350;53.176;8.194;2023-06-26T13:10:47;3.10;;;2.20;;
18443;SDS011;9350;53.176;8.194;2023-06-26T13:13:14;2.60;;;2.33;;
18443;SDS011;9350;53.176;8.194;2023-06-26T13:15:42;2.20;;;2.00;;
18443;SDS011;9350;53.176;8.194;2023-06-26T13:18:08;4.18;;;2.03;;
18443;SDS011;9350;53.176;8.194;2023-06-26T13:20:35;9.32;;;2.60;;
18443;SDS011;9350;53.176;8.194;2023-06-26T13:23:02;3.28;;;1.83;;
18443;SDS011;9350;53.176;8.194;2023-06-26T13:25:29;3.63;;;2.38;;
18443;SDS011;9350;53.176;8.194;2023-06-26T13:27:55;5.35;;;2.70;;
18443;SDS011;9350;53.176;8.194;2023-06-26T13:30:22;4.05;;;2.35;;
18443;SDS011;9350;53.176;8.194;2023-06-26T13:32:50;7.50;;;2.10;;
18443;SDS011;9350;53.176;8.194;2023-06-26T13:35:17;4.63;;;2.17;;
18443;SDS011;9350;53.176;8.194;2023-06-26T13:37:44;6.05;;;1.95;;
18443;SDS011;9350;53.176;8.194;2023-06-26T13:40:12;2.92;;;2.03;;
18443;SDS011;9350;53.176;8.194;2023-06-26T13:42:39;2.88;;;2.00;;
18443;SDS011;9350;53.176;8.194;2023-06-26T13:45:06;2.53;;;1.80;;
18443;SDS011;9350;53.176;8.194;2023-06-26T13:47:34;4.63;;;1.83;;
18443;SDS011;9350;53.176;8.194;2023-06-26T13:50:04;3.15;;;2.17;;
18443;SDS011;9350;53.176;8.194;2023-06-26T13:52:31;5.75;;;1.90;;
18443;SDS011;9350;53.176;8.194;2023-06-26T13:54:58;7.95;;;2.53;;
18443;SDS011;9350;53.176;8.194;2023-06-26T13:57:25;5.60;;;2.30;;
18443;SDS011;9350;53.176;8.194;2023-06-26T13:59:52;3.08;;;2.00;;
18443;SDS011;9350;53.176;8.194;2023-06-26T14:02:19;6.63;;;2.25;;
18443;SDS011;9350;53.176;8.194;2023-06-26T14:04:46;2.30;;;1.73;;
18443;SDS011;9350;53.176;8.194;2023-06-26T14:07:14;3.03;;;1.90;;
18443;SDS011;9350;53.176;8.194;2023-06-26T14:09:41;3.33;;;1.70;;
18443;SDS011;9350;53.176;8.194;2023-06-26T14:12:08;4.65;;;1.88;;
18443;SDS011;9350;53.176;8.194;2023-06-26T14:14:35;4.90;;;2.25;;
18443;SDS011;9350;53.176;8.194;2023-06-26T14:17:01;4.10;;;1.92;;
18443;SDS011;9350;53.176;8.194;2023-06-26T14:19:30;12.05;;;2.38;;
18443;SDS011;9350;53.176;8.194;2023-06-26T14:21:57;4.13;;;1.90;;
18443;SDS011;9350;53.176;8.194;2023-06-26T14:24:25;5.22;;;2.10;;
18443;SDS011;9350;53.176;8.194;2023-06-26T14:26:52;4.40;;;1.95;;
18443;SDS011;9350;53.176;8.194;2023-06-26T14:29:19;6.63;;;1.90;;
18443;SDS011;9350;53.176;8.194;2023-06-26T14:31:46;7.15;;;2.10;;
18443;SDS011;9350;53.176;8.194;2023-06-26T14:34:13;3.58;;;2.00;;
18443;SDS011;9350;53.176;8.194;2023-06-26T14:36:39;4.90;;;1.85;;
18443;SDS011;9350;53.176;8.194;2023-06-26T14:39:06;5.75;;;2.10;;
18443;SDS011;9350;53.176;8.194;2023-06-26T14:41:34;6.32;;;2.22;;
18443;SDS011;9350;53.176;8.194;2023-06-26T14:44:01;6.47;;;1.95;;
18443;SDS011;9350;53.176;8.194;2023-06-26T14:46:27;4.63;;;1.85;;
18443;SDS011;9350;53.176;8.194;2023-06-26T14:48:54;4.03;;;1.65;;
18443;SDS011;9350;53.176;8.194;2023-06-26T14:51:21;4.28;;;1.60;;
18443;SDS011;9350;53.176;8.194;2023-06-26T14:53:48;3.67;;;1.70;;
18443;SDS011;9350;53.176;8.194;2023-06-26T14:56:14;8.20;;;1.80;;
18443;SDS011;9350;53.176;8.194;2023-06-26T14:58:43;2.17;;;1.52;;
18443;SDS011;9350;53.176;8.194;2023-06-26T15:01:12;4.18;;;1.73;;
18443;SDS011;9350;53.176;8.194;2023-06-26T15:03:40;6.00;;;1.70;;
18443;SDS011;9350;53.176;8.194;2023-06-26T15:06:07;5.75;;;1.33;;
18443;SDS011;9350;53.176;8.194;2023-06-26T15:08:33;4.38;;;1.33;;